sensor_id;sensor_type;location;lat;lon;timestamp;pressure;altitude;pressure_sealevel;temperature;humidity
38612;BME280;24368;52.156;20.788;2024-01-07T00:00:02;100197.59;;;-6.65;100.00
38612;BME280;24368;52.156;20.788;2024-01-07T00:05:05;100201.41;;;-6.68;100.00
38612;BME280;24368;52.156;20.788;2024-01-07T00:10:07;100195.30;;;-6.69;100.00
38612;BME280;24368;52.156;20.788;2024-01-07T00:15:10;100202.91;;;-6.71;100.00
38612;BME280;24368;52.156;20.788;2024-01-07T00:20:12;100208.83;;;-6.74;100.00
38612;BME280;24368;52.156;20.788;2024-01-07T00:25:14;100207.10;;;-6.73;100.00
38612;BME280;24368;52.156;20.788;2024-01-07T00:30:16;100206.94;;;-6.74;100.00
38612;BME280;24368;52.156;20.788;2024-01-07T00:35:18;100215.32;;;-6.74;100.00
38612;BME280;24368;52.156;20.788;2024-01-07T00:40:20;100220.10;;;-6.84;100.00
38612;BME280;24368;52.156;20.788;2024-01-07T00:45:21;100229.40;;;-6.85;100.00
38612;BME280;24368;52.156;20.788;2024-01-07T00:50:23;100227.73;;;-6.87;100.00
38612;BME280;24368;52.156;20.788;2024-01-07T00:55:25;100229.49;;;-6.88;100.00
38612;BME280;24368;52.156;20.788;2024-01-07T01:00:27;100230.21;;;-6.89;100.00
38612;BME280;24368;52.156;20.788;2024-01-07T01:05:30;100234.94;;;-6.93;100.00
38612;BME280;24368;52.156;20.788;2024-01-07T01:10:32;100242.75;;;-7.02;100.00
38612;BME280;24368;52.156;20.788;2024-01-07T01:15:33;100245.44;;;-7.06;100.00
38612;BME280;24368;52.156;20.788;2024-01-07T01:20:35;100236.80;;;-7.03;100.00
38612;BME280;24368;52.156;20.788;2024-01-07T01:25:37;100242.80;;;-7.09;100.00
38612;BME280;24368;52.156;20.788;2024-01-07T01:30:41;100244.44;;;-7.13;100.00
38612;BME280;24368;52.156;20.788;2024-01-07T01:35:43;100245.36;;;-7.15;100.00
38612;BME280;24368;52.156;20.788;2024-01-07T01:40:51;100239.80;;;-7.18;100.00
38612;BME280;24368;52.156;20.788;2024-01-07T01:45:55;100236.83;;;-7.16;100.00
38612;BME280;24368;52.156;20.788;2024-01-07T01:50:57;100235.20;;;-7.19;100.00
38612;BME280;24368;52.156;20.788;2024-01-07T01:56:01;100236.44;;;-7.20;100.00
38612;BME280;24368;52.156;20.788;2024-01-07T02:01:05;100231.92;;;-7.18;100.00
38612;BME280;24368;52.156;20.788;2024-01-07T02:06:07;100229.06;;;-7.26;100.00
38612;BME280;24368;52.156;20.788;2024-01-07T02:11:21;100227.44;;;-7.28;100.00
38612;BME280;24368;52.156;20.788;2024-01-07T02:16:23;100231.01;;;-7.33;100.00
38612;BME280;24368;52.156;20.788;2024-01-07T02:21:25;100228.72;;;-7.37;100.00
38612;BME280;24368;52.156;20.788;2024-01-07T02:26:27;100231.13;;;-7.37;100.00
38612;BME280;24368;52.156;20.788;2024-01-07T02:31:29;100231.48;;;-7.32;100.00
38612;BME280;24368;52.156;20.788;2024-01-07T02:36:30;100224.39;;;-7.30;100.00
38612;BME280;24368;52.156;20.788;2024-01-07T02:41:32;100226.80;;;-7.30;100.00
38612;BME280;24368;52.156;20.788;2024-01-07T02:46:34;100224.36;;;-7.29;100.00
38612;BME280;24368;52.156;20.788;2024-01-07T02:51:35;100228.94;;;-7.39;100.00
38612;BME280;24368;52.156;20.788;2024-01-07T02:56:37;100228.11;;;-7.46;100.00
38612;BME280;24368;52.156;20.788;2024-01-07T03:01:39;100229.70;;;-7.48;100.00
38612;BME280;24368;52.156;20.788;2024-01-07T03:06:41;100230.80;;;-7.50;100.00
38612;BME280;24368;52.156;20.788;2024-01-07T03:11:43;100232.61;;;-7.60;100.00
38612;BME280;24368;52.156;20.788;2024-01-07T03:16:45;100231.61;;;-7.67;100.00
38612;BME280;24368;52.156;20.788;2024-01-07T03:21:48;100231.88;;;-7.77;100.00
38612;BME280;24368;52.156;20.788;2024-01-07T03:26:50;100233.42;;;-7.83;100.00
38612;BME280;24368;52.156;20.788;2024-01-07T03:31:52;100238.84;;;-7.94;100.00
38612;BME280;24368;52.156;20.788;2024-01-07T03:36:54;100240.30;;;-7.91;100.00
38612;BME280;24368;52.156;20.788;2024-01-07T03:41:56;100240.90;;;-7.94;100.00
38612;BME280;24368;52.156;20.788;2024-01-07T03:46:58;100242.60;;;-8.00;100.00
38612;BME280;24368;52.156;20.788;2024-01-07T03:51:59;100244.35;;;-8.02;100.00
38612;BME280;24368;52.156;20.788;2024-01-07T03:57:01;100246.48;;;-8.12;100.00
38612;BME280;24368;52.156;20.788;2024-01-07T04:02:03;100253.98;;;-8.18;100.00
38612;BME280;24368;52.156;20.788;2024-01-07T04:07:05;100256.64;;;-8.15;100.00
38612;BME280;24368;52.156;20.788;2024-01-07T04:12:07;100253.73;;;-8.21;100.00
38612;BME280;24368;52.156;20.788;2024-01-07T04:17:08;100253.05;;;-8.22;100.00
38612;BME280;24368;52.156;20.788;2024-01-07T04:22:10;100251.85;;;-8.28;100.00
38612;BME280;24368;52.156;20.788;2024-01-07T04:27:12;100254.17;;;-8.33;100.00
38612;BME280;24368;52.156;20.788;2024-01-07T04:32:14;100255.55;;;-8.32;100.00
38612;BME280;24368;52.156;20.788;2024-01-07T04:37:15;100256.92;;;-8.39;100.00
38612;BME280;24368;52.156;20.788;2024-01-07T04:42:17;100261.38;;;-8.39;100.00
38612;BME280;24368;52.156;20.788;2024-01-07T04:47:27;100262.52;;;-8.37;100.00
38612;BME280;24368;52.156;20.788;2024-01-07T04:52:29;100259.67;;;-8.33;100.00
38612;BME280;24368;52.156;20.788;2024-01-07T04:57:31;100262.87;;;-8.25;100.00
38612;BME280;24368;52.156;20.788;2024-01-07T05:02:32;100265.21;;;-8.36;100.00
38612;BME280;24368;52.156;20.788;2024-01-07T05:07:34;100269.55;;;-8.38;100.00
38612;BME280;24368;52.156;20.788;2024-01-07T05:12:36;100272.60;;;-8.37;100.00
38612;BME280;24368;52.156;20.788;2024-01-07T05:17:38;100275.11;;;-8.42;100.00
38612;BME280;24368;52.156;20.788;2024-01-07T05:22:40;100277.18;;;-8.43;100.00
38612;BME280;24368;52.156;20.788;2024-01-07T05:27:41;100283.60;;;-8.40;100.00
38612;BME280;24368;52.156;20.788;2024-01-07T05:32:43;100290.11;;;-8.54;100.00
38612;BME280;24368;52.156;20.788;2024-01-07T05:37:45;100286.88;;;-8.55;100.00
38612;BME280;24368;52.156;20.788;2024-01-07T05:42:47;100288.35;;;-8.53;100.00
38612;BME280;24368;52.156;20.788;2024-01-07T05:47:48;100292.90;;;-8.50;100.00
38612;BME280;24368;52.156;20.788;2024-01-07T05:52:50;100291.34;;;-8.49;100.00
38612;BME280;24368;52.156;20.788;2024-01-07T05:57:52;100291.83;;;-8.55;100.00
38612;BME280;24368;52.156;20.788;2024-01-07T06:02:54;100282.73;;;-8.60;100.00
38612;BME280;24368;52.156;20.788;2024-01-07T06:07:56;100288.73;;;-8.62;100.00
38612;BME280;24368;52.156;20.788;2024-01-07T06:12:57;100293.63;;;-8.52;100.00
38612;BME280;24368;52.156;20.788;2024-01-07T06:17:59;100296.55;;;-8.59;100.00
38612;BME280;24368;52.156;20.788;2024-01-07T06:23:01;100296.69;;;-8.58;100.00
38612;BME280;24368;52.156;20.788;2024-01-07T06:28:03;100301.63;;;-8.66;100.00
38612;BME280;24368;52.156;20.788;2024-01-07T06:33:06;100307.92;;;-8.72;100.00
38612;BME280;24368;52.156;20.788;2024-01-07T06:38:07;100313.40;;;-8.73;100.00
38612;BME280;24368;52.156;20.788;2024-01-07T06:43:09;100318.46;;;-8.78;100.00
38612;BME280;24368;52.156;20.788;2024-01-07T06:48:11;100327.30;;;-8.76;100.00
38612;BME280;24368;52.156;20.788;2024-01-07T06:53:13;100333.56;;;-8.80;100.00
38612;BME280;24368;52.156;20.788;2024-01-07T06:58:15;100337.38;;;-8.76;100.00
38612;BME280;24368;52.156;20.788;2024-01-07T07:03:17;100342.33;;;-8.76;100.00
38612;BME280;24368;52.156;20.788;2024-01-07T07:08:18;100341.50;;;-8.70;100.00
38612;BME280;24368;52.156;20.788;2024-01-07T07:13:20;100346.59;;;-8.76;100.00
38612;BME280;24368;52.156;20.788;2024-01-07T07:18:22;100347.94;;;-8.75;100.00
38612;BME280;24368;52.156;20.788;2024-01-07T07:23:24;100356.88;;;-8.61;100.00
38612;BME280;24368;52.156;20.788;2024-01-07T07:28:26;100352.67;;;-8.65;100.00
38612;BME280;24368;52.156;20.788;2024-01-07T07:33:27;100357.37;;;-8.60;100.00
38612;BME280;24368;52.156;20.788;2024-01-07T07:38:29;100363.45;;;-8.57;100.00
38612;BME280;24368;52.156;20.788;2024-01-07T07:43:31;100361.87;;;-8.55;100.00
38612;BME280;24368;52.156;20.788;2024-01-07T07:48:33;100356.80;;;-8.50;100.00
38612;BME280;24368;52.156;20.788;2024-01-07T07:53:38;100365.17;;;-8.50;100.00
38612;BME280;24368;52.156;20.788;2024-01-07T07:58:40;100369.81;;;-8.38;100.00
38612;BME280;24368;52.156;20.788;2024-01-07T08:03:42;100374.43;;;-8.30;100.00
38612;BME280;24368;52.156;20.788;2024-01-07T08:08:44;100374.22;;;-8.29;100.00
38612;BME280;24368;52.156;20.788;2024-01-07T08:13:46;100378.71;;;-8.31;100.00
38612;BME280;24368;52.156;20.788;2024-01-07T08:18:49;100383.94;;;-8.35;100.00
38612;BME280;24368;52.156;20.788;2024-01-07T08:23:51;100386.94;;;-8.32;100.00
38612;BME280;24368;52.156;20.788;2024-01-07T08:28:54;100391.70;;;-8.23;100.00
38612;BME280;24368;52.156;20.788;2024-01-07T08:33:56;100394.95;;;-8.17;100.00
38612;BME280;24368;52.156;20.788;2024-01-07T08:38:58;100397.92;;;-8.11;100.00
38612;BME280;24368;52.156;20.788;2024-01-07T08:44:00;100401.42;;;-8.00;100.00
38612;BME280;24368;52.156;20.788;2024-01-07T08:49:02;100398.46;;;-7.91;100.00
38612;BME280;24368;52.156;20.788;2024-01-07T08:54:04;100396.02;;;-7.88;100.00
38612;BME280;24368;52.156;20.788;2024-01-07T08:59:06;100404.03;;;-7.81;100.00
38612;BME280;24368;52.156;20.788;2024-01-07T09:04:08;100411.34;;;-7.65;100.00
38612;BME280;24368;52.156;20.788;2024-01-07T09:09:10;100414.98;;;-7.67;100.00
38612;BME280;24368;52.156;20.788;2024-01-07T09:14:12;100410.61;;;-7.71;100.00
38612;BME280;24368;52.156;20.788;2024-01-07T09:19:16;100408.77;;;-7.78;100.00
38612;BME280;24368;52.156;20.788;2024-01-07T09:24:19;100418.11;;;-7.83;100.00
38612;BME280;24368;52.156;20.788;2024-01-07T09:29:20;100422.46;;;-7.86;100.00
38612;BME280;24368;52.156;20.788;2024-01-07T09:34:22;100420.02;;;-7.84;100.00
38612;BME280;24368;52.156;20.788;2024-01-07T09:39:24;100408.39;;;-7.84;100.00
38612;BME280;24368;52.156;20.788;2024-01-07T09:44:27;100407.13;;;-7.82;100.00
38612;BME280;24368;52.156;20.788;2024-01-07T09:49:29;100404.34;;;-7.86;100.00
38612;BME280;24368;52.156;20.788;2024-01-07T09:54:31;100400.86;;;-7.92;100.00
38612;BME280;24368;52.156;20.788;2024-01-07T09:59:35;100398.24;;;-7.89;100.00
38612;BME280;24368;52.156;20.788;2024-01-07T10:04:40;100404.48;;;-7.92;100.00
38612;BME280;24368;52.156;20.788;2024-01-07T10:09:43;100404.36;;;-7.88;100.00
38612;BME280;24368;52.156;20.788;2024-01-07T10:14:45;100402.27;;;-7.93;100.00
38612;BME280;24368;52.156;20.788;2024-01-07T10:19:47;100402.89;;;-7.90;100.00
38612;BME280;24368;52.156;20.788;2024-01-07T10:24:51;100398.58;;;-8.03;100.00
38612;BME280;24368;52.156;20.788;2024-01-07T10:29:54;100399.69;;;-8.06;100.00
38612;BME280;24368;52.156;20.788;2024-01-07T10:35:03;100404.89;;;-8.02;100.00
38612;BME280;24368;52.156;20.788;2024-01-07T10:40:07;100399.84;;;-7.98;100.00
38612;BME280;24368;52.156;20.788;2024-01-07T10:45:09;100401.38;;;-7.98;100.00
38612;BME280;24368;52.156;20.788;2024-01-07T10:50:14;100407.14;;;-8.03;100.00
38612;BME280;24368;52.156;20.788;2024-01-07T10:55:18;100407.91;;;-8.07;100.00
38612;BME280;24368;52.156;20.788;2024-01-07T11:00:20;100408.54;;;-8.05;100.00
38612;BME280;24368;52.156;20.788;2024-01-07T11:05:39;100409.39;;;-7.98;100.00
38612;BME280;24368;52.156;20.788;2024-01-07T11:10:50;100410.45;;;-7.92;100.00
38612;BME280;24368;52.156;20.788;2024-01-07T11:15:55;100411.58;;;-7.89;100.00
38612;BME280;24368;52.156;20.788;2024-01-07T11:21:00;100405.46;;;-7.98;100.00
38612;BME280;24368;52.156;20.788;2024-01-07T11:26:07;100403.40;;;-7.97;100.00
38612;BME280;24368;52.156;20.788;2024-01-07T11:31:13;100395.48;;;-8.02;100.00
38612;BME280;24368;52.156;20.788;2024-01-07T11:36:17;100400.21;;;-8.07;100.00
38612;BME280;24368;52.156;20.788;2024-01-07T11:41:20;100405.44;;;-7.97;100.00
38612;BME280;24368;52.156;20.788;2024-01-07T11:46:23;100404.10;;;-7.98;100.00
38612;BME280;24368;52.156;20.788;2024-01-07T11:51:29;100399.77;;;-8.03;100.00
38612;BME280;24368;52.156;20.788;2024-01-07T11:56:34;100402.98;;;-7.94;100.00
38612;BME280;24368;52.156;20.788;2024-01-07T12:01:36;100404.10;;;-8.05;100.00
38612;BME280;24368;52.156;20.788;2024-01-07T12:06:38;100406.17;;;-8.14;100.00
38612;BME280;24368;52.156;20.788;2024-01-07T12:11:42;100404.94;;;-8.12;100.00
38612;BME280;24368;52.156;20.788;2024-01-07T12:16:44;100402.64;;;-8.01;100.00
38612;BME280;24368;52.156;20.788;2024-01-07T12:21:46;100404.76;;;-7.97;100.00
38612;BME280;24368;52.156;20.788;2024-01-07T12:26:49;100403.47;;;-8.00;100.00
38612;BME280;24368;52.156;20.788;2024-01-07T12:31:51;100412.38;;;-8.08;100.00
38612;BME280;24368;52.156;20.788;2024-01-07T12:36:52;100418.36;;;-8.16;100.00
38612;BME280;24368;52.156;20.788;2024-01-07T12:41:56;100415.70;;;-8.20;100.00
38612;BME280;24368;52.156;20.788;2024-01-07T12:46:58;100416.15;;;-8.17;100.00
38612;BME280;24368;52.156;20.788;2024-01-07T12:52:00;100425.50;;;-8.14;100.00
38612;BME280;24368;52.156;20.788;2024-01-07T12:57:01;100421.84;;;-8.11;100.00
38612;BME280;24368;52.156;20.788;2024-01-07T13:02:03;100435.73;;;-8.12;100.00
38612;BME280;24368;52.156;20.788;2024-01-07T13:07:05;100439.63;;;-8.19;100.00
38612;BME280;24368;52.156;20.788;2024-01-07T13:12:07;100439.59;;;-8.26;100.00
38612;BME280;24368;52.156;20.788;2024-01-07T13:17:09;100443.96;;;-8.30;100.00
38612;BME280;24368;52.156;20.788;2024-01-07T13:22:11;100442.70;;;-8.27;100.00
38612;BME280;24368;52.156;20.788;2024-01-07T13:27:13;100448.81;;;-8.25;100.00
38612;BME280;24368;52.156;20.788;2024-01-07T13:32:15;100450.83;;;-8.23;100.00
38612;BME280;24368;52.156;20.788;2024-01-07T13:37:20;100449.45;;;-8.38;100.00
38612;BME280;24368;52.156;20.788;2024-01-07T13:42:23;100455.39;;;-8.43;100.00
38612;BME280;24368;52.156;20.788;2024-01-07T13:47:25;100458.70;;;-8.47;100.00
38612;BME280;24368;52.156;20.788;2024-01-07T13:52:27;100458.92;;;-8.57;100.00
38612;BME280;24368;52.156;20.788;2024-01-07T13:57:31;100459.21;;;-8.63;100.00
38612;BME280;24368;52.156;20.788;2024-01-07T14:02:33;100471.62;;;-8.60;100.00
38612;BME280;24368;52.156;20.788;2024-01-07T14:07:35;100468.94;;;-8.62;100.00
38612;BME280;24368;52.156;20.788;2024-01-07T14:12:37;100473.42;;;-8.65;100.00
38612;BME280;24368;52.156;20.788;2024-01-07T14:17:39;100481.15;;;-8.67;100.00
38612;BME280;24368;52.156;20.788;2024-01-07T14:22:45;100486.77;;;-8.67;100.00
38612;BME280;24368;52.156;20.788;2024-01-07T14:27:47;100492.51;;;-8.71;100.00
38612;BME280;24368;52.156;20.788;2024-01-07T14:32:49;100495.45;;;-8.82;100.00
38612;BME280;24368;52.156;20.788;2024-01-07T14:37:52;100493.09;;;-8.84;100.00
38612;BME280;24368;52.156;20.788;2024-01-07T14:42:54;100493.28;;;-8.85;100.00
38612;BME280;24368;52.156;20.788;2024-01-07T14:47:59;100494.18;;;-8.79;100.00
38612;BME280;24368;52.156;20.788;2024-01-07T14:53:01;100500.18;;;-8.71;100.00
38612;BME280;24368;52.156;20.788;2024-01-07T14:58:03;100505.80;;;-8.70;100.00
38612;BME280;24368;52.156;20.788;2024-01-07T15:03:04;100513.20;;;-8.64;100.00
38612;BME280;24368;52.156;20.788;2024-01-07T15:08:07;100511.76;;;-8.69;100.00
38612;BME280;24368;52.156;20.788;2024-01-07T15:13:09;100517.23;;;-8.69;100.00
38612;BME280;24368;52.156;20.788;2024-01-07T15:18:11;100518.69;;;-8.74;100.00
38612;BME280;24368;52.156;20.788;2024-01-07T15:23:13;100526.48;;;-8.72;100.00
38612;BME280;24368;52.156;20.788;2024-01-07T15:28:15;100528.77;;;-8.84;100.00
38612;BME280;24368;52.156;20.788;2024-01-07T15:33:17;100536.38;;;-8.98;100.00
38612;BME280;24368;52.156;20.788;2024-01-07T15:38:18;100541.15;;;-8.99;100.00
38612;BME280;24368;52.156;20.788;2024-01-07T15:43:20;100542.98;;;-9.06;100.00
38612;BME280;24368;52.156;20.788;2024-01-07T15:48:22;100548.34;;;-9.21;100.00
38612;BME280;24368;52.156;20.788;2024-01-07T15:53:26;100551.88;;;-9.28;100.00
38612;BME280;24368;52.156;20.788;2024-01-07T15:58:33;100562.70;;;-9.33;100.00
38612;BME280;24368;52.156;20.788;2024-01-07T16:03:36;100569.67;;;-9.31;100.00
38612;BME280;24368;52.156;20.788;2024-01-07T16:08:37;100572.12;;;-9.35;100.00
38612;BME280;24368;52.156;20.788;2024-01-07T16:13:39;100575.98;;;-9.31;100.00
38612;BME280;24368;52.156;20.788;2024-01-07T16:18:41;100576.83;;;-9.30;100.00
38612;BME280;24368;52.156;20.788;2024-01-07T16:23:43;100580.43;;;-9.32;100.00
38612;BME280;24368;52.156;20.788;2024-01-07T16:28:44;100589.77;;;-9.40;99.94
38612;BME280;24368;52.156;20.788;2024-01-07T16:33:46;100601.96;;;-9.33;99.95
38612;BME280;24368;52.156;20.788;2024-01-07T16:38:48;100600.59;;;-9.46;99.20
38612;BME280;24368;52.156;20.788;2024-01-07T16:43:50;100604.05;;;-9.37;99.32
38612;BME280;24368;52.156;20.788;2024-01-07T16:48:52;100611.67;;;-9.45;97.94
38612;BME280;24368;52.156;20.788;2024-01-07T16:53:53;100608.97;;;-9.46;97.23
38612;BME280;24368;52.156;20.788;2024-01-07T16:58:55;100615.90;;;-9.53;97.08
38612;BME280;24368;52.156;20.788;2024-01-07T17:03:57;100624.46;;;-9.57;97.80
38612;BME280;24368;52.156;20.788;2024-01-07T17:08:59;100629.52;;;-9.53;97.68
38612;BME280;24368;52.156;20.788;2024-01-07T17:14:00;100632.09;;;-9.53;98.28
38612;BME280;24368;52.156;20.788;2024-01-07T17:19:02;100636.80;;;-9.62;98.01
38612;BME280;24368;52.156;20.788;2024-01-07T17:24:04;100644.70;;;-9.67;97.86
38612;BME280;24368;52.156;20.788;2024-01-07T17:29:07;100649.64;;;-9.66;98.82
38612;BME280;24368;52.156;20.788;2024-01-07T17:34:08;100656.27;;;-9.64;99.90
38612;BME280;24368;52.156;20.788;2024-01-07T17:39:10;100663.02;;;-9.73;99.12
38612;BME280;24368;52.156;20.788;2024-01-07T17:44:12;100669.80;;;-9.83;99.69
38612;BME280;24368;52.156;20.788;2024-01-07T17:49:14;100679.45;;;-9.91;99.69
38612;BME280;24368;52.156;20.788;2024-01-07T17:54:16;100680.70;;;-9.97;99.93
38612;BME280;24368;52.156;20.788;2024-01-07T17:59:18;100681.59;;;-10.01;99.97
38612;BME280;24368;52.156;20.788;2024-01-07T18:04:20;100689.08;;;-9.99;100.00
38612;BME280;24368;52.156;20.788;2024-01-07T18:09:22;100693.46;;;-10.12;99.98
38612;BME280;24368;52.156;20.788;2024-01-07T18:14:24;100704.14;;;-10.22;100.00
38612;BME280;24368;52.156;20.788;2024-01-07T18:19:26;100708.43;;;-10.24;100.00
38612;BME280;24368;52.156;20.788;2024-01-07T18:24:28;100720.73;;;-10.26;99.94
38612;BME280;24368;52.156;20.788;2024-01-07T18:29:31;100723.72;;;-10.36;99.82
38612;BME280;24368;52.156;20.788;2024-01-07T18:34:33;100726.45;;;-10.37;99.99
38612;BME280;24368;52.156;20.788;2024-01-07T18:39:36;100733.98;;;-10.40;99.83
38612;BME280;24368;52.156;20.788;2024-01-07T18:44:38;100735.14;;;-10.35;100.00
38612;BME280;24368;52.156;20.788;2024-01-07T18:49:40;100737.79;;;-10.47;100.00
38612;BME280;24368;52.156;20.788;2024-01-07T18:54:42;100736.18;;;-10.61;99.97
38612;BME280;24368;52.156;20.788;2024-01-07T18:59:44;100743.68;;;-10.61;100.00
38612;BME280;24368;52.156;20.788;2024-01-07T19:04:46;100743.62;;;-10.53;100.00
38612;BME280;24368;52.156;20.788;2024-01-07T19:09:48;100748.04;;;-10.52;100.00
38612;BME280;24368;52.156;20.788;2024-01-07T19:14:50;100760.52;;;-10.57;100.00
38612;BME280;24368;52.156;20.788;2024-01-07T19:19:51;100763.73;;;-10.55;100.00
38612;BME280;24368;52.156;20.788;2024-01-07T19:24:53;100764.79;;;-10.59;100.00
38612;BME280;24368;52.156;20.788;2024-01-07T19:29:55;100776.39;;;-10.64;100.00
38612;BME280;24368;52.156;20.788;2024-01-07T19:34:57;100776.24;;;-10.68;100.00
38612;BME280;24368;52.156;20.788;2024-01-07T19:40:00;100783.20;;;-10.66;100.00
38612;BME280;24368;52.156;20.788;2024-01-07T19:45:02;100790.38;;;-10.68;100.00
38612;BME280;24368;52.156;20.788;2024-01-07T19:50:05;100788.99;;;-10.65;100.00
38612;BME280;24368;52.156;20.788;2024-01-07T19:55:10;100793.83;;;-10.76;100.00
38612;BME280;24368;52.156;20.788;2024-01-07T20:00:12;100800.64;;;-10.75;100.00
38612;BME280;24368;52.156;20.788;2024-01-07T20:05:16;100805.21;;;-10.73;100.00
38612;BME280;24368;52.156;20.788;2024-01-07T20:10:18;100817.19;;;-10.82;99.84
38612;BME280;24368;52.156;20.788;2024-01-07T20:15:20;100823.65;;;-10.82;99.64
38612;BME280;24368;52.156;20.788;2024-01-07T20:20:23;100824.23;;;-10.94;99.22
38612;BME280;24368;52.156;20.788;2024-01-07T20:25:25;100830.00;;;-10.91;99.72
38612;BME280;24368;52.156;20.788;2024-01-07T20:30:28;100828.48;;;-10.96;99.51
38612;BME280;24368;52.156;20.788;2024-01-07T20:35:30;100830.06;;;-11.08;99.10
38612;BME280;24368;52.156;20.788;2024-01-07T20:40:32;100844.02;;;-11.08;98.86
38612;BME280;24368;52.156;20.788;2024-01-07T20:45:34;100842.00;;;-11.13;98.81
38612;BME280;24368;52.156;20.788;2024-01-07T20:50:36;100842.34;;;-11.16;98.74
38612;BME280;24368;52.156;20.788;2024-01-07T20:55:41;100850.54;;;-11.21;98.32
38612;BME280;24368;52.156;20.788;2024-01-07T21:00:43;100851.75;;;-11.26;99.13
38612;BME280;24368;52.156;20.788;2024-01-07T21:05:48;100856.01;;;-11.27;98.85
38612;BME280;24368;52.156;20.788;2024-01-07T21:10:50;100857.03;;;-11.27;98.83
38612;BME280;24368;52.156;20.788;2024-01-07T21:15:51;100859.56;;;-11.27;98.99
38612;BME280;24368;52.156;20.788;2024-01-07T21:20:53;100868.05;;;-11.22;99.43
38612;BME280;24368;52.156;20.788;2024-01-07T21:25:56;100871.61;;;-11.19;100.00
38612;BME280;24368;52.156;20.788;2024-01-07T21:30:58;100870.11;;;-11.25;99.95
38612;BME280;24368;52.156;20.788;2024-01-07T21:36:04;100875.73;;;-11.26;99.91
38612;BME280;24368;52.156;20.788;2024-01-07T21:41:06;100879.29;;;-11.20;100.00
38612;BME280;24368;52.156;20.788;2024-01-07T21:46:08;100889.85;;;-11.28;99.62
38612;BME280;24368;52.156;20.788;2024-01-07T21:51:11;100892.90;;;-11.27;99.99
38612;BME280;24368;52.156;20.788;2024-01-07T21:56:13;100895.45;;;-11.24;100.00
38612;BME280;24368;52.156;20.788;2024-01-07T22:01:15;100895.98;;;-11.28;99.88
38612;BME280;24368;52.156;20.788;2024-01-07T22:06:17;100904.31;;;-11.31;99.81
38612;BME280;24368;52.156;20.788;2024-01-07T22:11:18;100905.17;;;-11.37;99.44
38612;BME280;24368;52.156;20.788;2024-01-07T22:16:20;100911.63;;;-11.37;99.86
38612;BME280;24368;52.156;20.788;2024-01-07T22:21:22;100914.70;;;-11.42;99.13
38612;BME280;24368;52.156;20.788;2024-01-07T22:26:24;100919.13;;;-11.46;99.30
38612;BME280;24368;52.156;20.788;2024-01-07T22:31:26;100926.10;;;-11.42;99.92
38612;BME280;24368;52.156;20.788;2024-01-07T22:36:31;100930.86;;;-11.46;99.53
38612;BME280;24368;52.156;20.788;2024-01-07T22:41:33;100931.02;;;-11.45;99.67
38612;BME280;24368;52.156;20.788;2024-01-07T22:46:35;100940.89;;;-11.42;99.82
38612;BME280;24368;52.156;20.788;2024-01-07T22:51:40;100943.78;;;-11.41;99.80
38612;BME280;24368;52.156;20.788;2024-01-07T22:56:44;100948.86;;;-11.33;99.93
38612;BME280;24368;52.156;20.788;2024-01-07T23:01:46;100953.13;;;-11.30;99.88
38612;BME280;24368;52.156;20.788;2024-01-07T23:06:48;100955.83;;;-11.25;100.00
38612;BME280;24368;52.156;20.788;2024-01-07T23:11:50;100961.61;;;-11.22;100.00
38612;BME280;24368;52.156;20.788;2024-01-07T23:16:52;100959.41;;;-11.27;99.80
38612;BME280;24368;52.156;20.788;2024-01-07T23:21:53;100961.27;;;-11.25;99.79
38612;BME280;24368;52.156;20.788;2024-01-07T23:26:55;100963.99;;;-11.31;98.77
38612;BME280;24368;52.156;20.788;2024-01-07T23:31:57;100960.77;;;-11.31;99.10
38612;BME280;24368;52.156;20.788;2024-01-07T23:36:58;100960.26;;;-11.29;98.89
38612;BME280;24368;52.156;20.788;2024-01-07T23:42:00;100968.58;;;-11.25;99.06
38612;BME280;24368;52.156;20.788;2024-01-07T23:47:02;100972.98;;;-11.11;99.96
38612;BME280;24368;52.156;20.788;2024-01-07T23:52:04;100975.19;;;-11.05;100.00
38612;BME280;24368;52.156;20.788;2024-01-07T23:57:06;100976.73;;;-11.10;99.85
